Time;durP1;ratioP1;P1;durP2;ratioP2;P2;SDS_P1;SDS_P2;PMS_P1;PMS_P2;Temp;Humidity;BMP_temperature;BMP_pressure;BME280_temperature;BME280_humidity;BME280_pressure;Samples;Min_cycle;Max_cycle;Signal;HPM_P1;HPM_P2
2022/12/09 00:01:19;;;;;;;91.63;28.65;;;;;;;0.58;100.00;100620.97;5045740;28;20492;-73
2022/12/09 00:03:45;;;;;;;90.13;28.23;;;;;;;0.58;100.00;100618.38;5047452;28;20040;-72
2022/12/09 00:06:15;;;;;;;88.78;29.10;;;;;;;0.56;100.00;100610.53;5045437;28;20098;-72
2022/12/09 00:08:41;;;;;;;91.95;29.38;;;;;;;0.56;100.00;100615.72;5051452;28;20469;-72
2022/12/09 00:11:06;;;;;;;93.05;27.02;;;;;;;0.55;100.00;100611.34;5050732;28;20028;-72
2022/12/09 00:13:32;;;;;;;84.93;27.38;;;;;;;0.55;100.00;100613.94;5048813;28;20039;-74
2022/12/09 00:15:58;;;;;;;89.70;26.40;;;;;;;0.54;100.00;100612.13;5050013;28;20052;-73
2022/12/09 00:18:23;;;;;;;94.55;26.20;;;;;;;0.55;100.00;100618.22;5035775;28;20041;-72
2022/12/09 00:20:48;;;;;;;102.63;26.58;;;;;;;0.52;100.00;100618.94;5045840;28;20020;-72
2022/12/09 00:23:14;;;;;;;104.05;27.95;;;;;;;0.53;100.00;100619.81;5049518;28;20512;-73
2022/12/09 00:25:39;;;;;;;94.68;28.42;;;;;;;0.46;100.00;100614.34;5054374;28;20485;-73
2022/12/09 00:28:05;;;;;;;169.30;28.35;;;;;;;0.45;100.00;100609.09;5044619;28;20642;-72
2022/12/09 00:30:30;;;;;;;154.32;26.83;;;;;;;0.41;100.00;100610.59;5047299;28;20511;-73
2022/12/09 00:32:55;;;;;;;80.40;23.65;;;;;;;0.40;100.00;100613.13;5052646;28;20091;-73
2022/12/09 00:35:22;;;;;;;216.02;27.58;;;;;;;0.42;100.00;100616.66;5047803;28;20102;-73
2022/12/09 00:37:47;;;;;;;154.48;26.42;;;;;;;0.41;100.00;100609.72;5048731;28;20029;-73
2022/12/09 00:40:13;;;;;;;215.98;27.10;;;;;;;0.41;100.00;100614.91;5054177;28;20504;-72
2022/12/09 00:42:38;;;;;;;167.02;25.60;;;;;;;0.41;100.00;100620.09;5047630;28;20025;-72
2022/12/09 00:45:04;;;;;;;139.13;22.10;;;;;;;0.42;100.00;100616.66;5048904;28;20384;-73
2022/12/09 00:47:29;;;;;;;205.02;23.02;;;;;;;0.38;100.00;100614.72;5043144;28;20028;-73
2022/12/09 00:49:54;;;;;;;85.25;18.85;;;;;;;0.42;100.00;100622.75;5047716;28;20027;-73
2022/12/09 00:52:20;;;;;;;114.38;19.88;;;;;;;0.39;100.00;100612.22;5036446;28;20033;-72
2022/12/09 00:54:45;;;;;;;137.55;21.58;;;;;;;0.43;100.00;100623.63;5046550;28;20392;-72
2022/12/09 00:57:10;;;;;;;133.57;20.88;;;;;;;0.45;100.00;100616.84;5054708;28;20029;-73
2022/12/09 00:59:36;;;;;;;108.82;19.00;;;;;;;0.46;100.00;100614.34;5034553;28;20048;-72
2022/12/09 01:02:01;;;;;;;116.10;20.65;;;;;;;0.48;100.00;100628.25;5044849;28;20029;-73
2022/12/09 01:04:27;;;;;;;89.03;20.83;;;;;;;0.48;100.00;100625.66;5051911;28;20032;-74
2022/12/09 01:06:52;;;;;;;66.00;18.40;;;;;;;0.49;100.00;100623.97;5050343;28;20780;-73
2022/12/09 01:09:17;;;;;;;67.72;20.55;;;;;;;0.45;100.00;100632.38;5049898;28;20447;-72
2022/12/09 01:11:43;;;;;;;67.05;20.00;;;;;;;0.43;100.00;100631.41;5044520;28;20025;-73
2022/12/09 01:14:08;;;;;;;56.38;18.10;;;;;;;0.41;100.00;100627.84;5051132;28;20433;-73
2022/12/09 01:16:34;;;;;;;56.72;19.38;;;;;;;0.40;100.00;100631.25;5041101;28;20392;-73
2022/12/09 01:19:02;;;;;;;61.55;20.92;;;;;;;0.39;100.00;100627.75;5052656;28;20025;-71
2022/12/09 01:21:28;;;;;;;64.50;19.63;;;;;;;0.40;100.00;100629.53;5051352;28;20025;-72
2022/12/09 01:23:54;;;;;;;73.82;20.33;;;;;;;0.40;100.00;100633.81;5049392;28;20044;-73
2022/12/09 01:26:20;;;;;;;79.93;20.95;;;;;;;0.42;100.00;100633.09;5038173;28;20025;-72
2022/12/09 01:28:45;;;;;;;68.38;20.70;;;;;;;0.44;100.00;100640.94;5038288;28;20144;-74
2022/12/09 01:31:14;;;;;;;68.95;20.63;;;;;;;0.42;100.00;100633.09;5041113;28;20029;-73
2022/12/09 01:33:40;;;;;;;69.30;19.38;;;;;;;0.40;100.00;100636.41;5047258;28;20176;-72
2022/12/09 01:36:10;;;;;;;77.07;22.00;;;;;;;0.39;100.00;100637.22;5036773;28;20060;-72
2022/12/09 01:38:35;;;;;;;62.25;20.55;;;;;;;0.39;100.00;100642.41;5050344;28;20029;-73
2022/12/09 01:41:00;;;;;;;54.63;20.17;;;;;;;0.38;100.00;100643.19;5045756;28;20021;-73
2022/12/09 01:43:26;;;;;;;67.22;20.17;;;;;;;0.35;100.00;100640.44;5043304;28;20083;-73
2022/12/09 01:45:51;;;;;;;70.07;19.65;;;;;;;0.32;100.00;100639.44;5045108;28;20087;-74
2022/12/09 01:48:20;;;;;;;70.43;20.70;;;;;;;0.32;100.00;100639.44;5054785;28;20035;-72
2022/12/09 01:50:51;;;;;;;63.20;19.08;;;;;;;0.35;100.00;100643.03;5046718;28;20021;-72
2022/12/09 01:53:20;;;;;;;68.03;20.52;;;;;;;0.35;100.00;100640.44;5048098;28;20040;-73
2022/12/09 01:55:46;;;;;;;61.10;20.20;;;;;;;0.32;100.00;100636.88;5048727;28;20099;-73
2022/12/09 01:58:13;;;;;;;52.97;18.88;;;;;;;0.33;100.00;100630.00;5037367;28;20578;-72
2022/12/09 02:00:38;;;;;;;63.25;21.00;;;;;;;0.30;100.00;100632.44;5038588;28;20067;-73
2022/12/09 02:03:05;;;;;;;58.17;20.13;;;;;;;0.26;100.00;100626.19;5049028;28;20384;-74
2022/12/09 02:05:31;;;;;;;50.83;17.73;;;;;;;0.27;100.00;100630.56;5053808;28;20090;-73
2022/12/09 02:07:57;;;;;;;70.38;21.52;;;;;;;0.29;100.00;100631.53;5047038;28;20029;-72
2022/12/09 02:10:22;;;;;;;58.95;20.98;;;;;;;0.28;100.00;100629.75;5046945;28;20029;-73
2022/12/09 02:13:04;;;;;;;79.15;23.08;;;;;;;0.28;100.00;100632.34;5043994;28;20436;-73
2022/12/09 02:15:38;;;;;;;63.50;19.90;;;;;;;0.33;100.00;100623.13;5038312;28;20035;-73
2022/12/09 02:18:23;;;;;;;72.07;23.55;;;;;;;0.29;100.00;100636.72;5048901;28;20044;-72
2022/12/09 02:20:56;;;;;;;73.35;22.45;;;;;;;0.26;100.00;100626.19;5040203;28;20035;-73
2022/12/09 02:23:26;;;;;;;77.07;23.17;;;;;;;0.23;100.00;100620.88;5046992;28;20049;-74
2022/12/09 02:26:26;;;;;;;76.72;25.45;;;;;;;0.25;100.00;100619.25;5039173;28;20033;-73
2022/12/09 02:29:04;;;;;;;77.60;23.42;;;;;;;0.25;100.00;100615.78;5035258;28;20511;-72
2022/12/09 02:31:53;;;;;;;65.20;22.42;;;;;;;0.23;100.00;100609.59;5051026;28;20108;-73
2022/12/09 02:34:21;;;;;;;73.28;22.48;;;;;;;0.22;100.00;100606.13;5044902;28;20064;-73
2022/12/09 02:37:08;;;;;;;69.05;23.17;;;;;;;0.21;100.00;100606.06;5055560;28;20039;-73
2022/12/09 02:39:51;;;;;;;79.47;23.42;;;;;;;0.19;100.00;100607.66;5045624;28;20055;-73
2022/12/09 02:42:20;;;;;;;82.85;22.90;;;;;;;0.21;100.00;100606.06;5044779;28;20374;-73
2022/12/09 02:44:48;;;;;;;81.45;24.00;;;;;;;0.21;100.00;100612.13;5049189;28;20542;-72
2022/12/09 02:47:17;;;;;;;88.38;23.25;;;;;;;0.22;100.00;100613.91;5037898;28;20033;-73
2022/12/09 02:49:47;;;;;;;60.90;20.75;;;;;;;0.19;100.00;100618.91;5050084;28;20036;-73
2022/12/09 02:52:13;;;;;;;69.80;19.52;;;;;;;0.15;100.00;100616.97;5042964;28;20029;-73
2022/12/09 02:54:40;;;;;;;70.28;20.40;;;;;;;0.09;100.00;100617.50;5045459;28;20371;-72
2022/12/09 02:57:20;;;;;;;78.97;22.83;;;;;;;0.08;100.00;100612.25;5036978;28;20025;-73
2022/12/09 02:59:45;;;;;;;72.38;20.35;;;;;;;0.09;100.00;100607.16;5039781;28;20053;-73
2022/12/09 03:02:13;;;;;;;69.85;21.13;;;;;;;0.03;100.00;100604.25;5044528;28;20381;-73
2022/12/09 03:04:43;;;;;;;60.70;18.98;;;;;;;0.04;100.00;100602.53;5051738;28;20142;-73
2022/12/09 03:07:35;;;;;;;69.22;19.45;;;;;;;0.04;100.00;100599.94;5054500;28;20024;-73
2022/12/09 03:10:14;;;;;;;55.10;17.00;;;;;;;0.03;100.00;100591.31;5044372;28;20028;-73
2022/12/09 03:12:41;;;;;;;61.13;18.50;;;;;;;0.01;100.00;100599.78;5045954;28;20496;-72
2022/12/09 03:15:10;;;;;;;59.05;18.60;;;;;;;-0.03;100.00;100597.03;5050410;28;20089;-72
2022/12/09 03:17:39;;;;;;;73.40;19.48;;;;;;;-0.03;100.00;100591.88;5042961;28;20079;-73
2022/12/09 03:20:23;;;;;;;72.22;18.77;;;;;;;-0.07;100.00;100592.50;5048750;28;20025;-73
2022/12/09 03:22:50;;;;;;;;;;;;;;;-0.07;100.00;100595.09;5052152;28;20643;-73
2022/12/09 03:25:22;;;;;;;79.13;19.83;;;;;;;-0.06;100.00;100594.25;5054883;28;20371;-74
2022/12/09 03:28:03;;;;;;;81.50;21.75;;;;;;;-0.02;100.00;100598.81;5056101;28;20108;-73
2022/12/09 03:30:35;;;;;;;80.78;21.23;;;;;;;-0.01;100.00;100595.41;5047420;28;20119;-73
2022/12/09 03:33:03;;;;;;;90.72;21.77;;;;;;;0.02;100.00;100592.13;5054800;28;20059;-72
2022/12/09 03:35:33;;;;;;;94.50;21.45;;;;;;;0.03;100.00;100588.72;5051626;28;20043;-73
2022/12/09 03:38:04;;;;;;;76.60;20.58;;;;;;;0.04;100.00;100587.94;5045924;28;20057;-73
2022/12/09 03:40:31;;;;;;;86.72;21.67;;;;;;;0.04;100.00;100592.19;5043894;28;20379;-74
2022/12/09 03:43:08;;;;;;;82.47;20.30;;;;;;;0.05;100.00;100586.22;5044874;28;20033;-73
2022/12/09 03:45:34;;;;;;;63.65;16.88;;;;;;;0.05;100.00;100589.69;5051984;28;20384;-73
2022/12/09 03:48:00;;;;;;;67.07;17.38;;;;;;;0.03;100.00;100585.22;5047962;28;20090;-73
2022/12/09 03:50:30;;;;;;;70.43;17.75;;;;;;;-0.03;100.00;100581.53;5034874;28;20103;-73
2022/12/09 03:53:05;;;;;;;71.47;16.35;;;;;;;-0.04;100.00;100582.31;5049493;28;20074;-74
2022/12/09 03:55:41;;;;;;;74.28;17.23;;;;;;;-0.03;100.00;100575.44;5045295;28;20033;-74
2022/12/09 03:58:11;;;;;;;77.15;17.42;;;;;;;-0.07;100.00;100574.41;5051053;28;20053;-73
2022/12/09 04:00:37;;;;;;;79.88;18.15;;;;;;;-0.05;100.00;100583.13;5048342;28;20028;-73
2022/12/09 04:03:03;;;;;;;70.75;17.08;;;;;;;-0.04;100.00;100584.91;5048914;28;20504;-72
2022/12/09 04:05:29;;;;;;;69.70;19.77;;;;;;;-0.02;100.00;100580.69;5047745;28;20033;-72
2022/12/09 04:07:55;;;;;;;83.57;17.55;;;;;;;0.03;100.00;100585.22;5044970;28;20037;-73
2022/12/09 04:10:20;;;;;;;75.47;18.52;;;;;;;0.04;100.00;100587.00;5049865;28;20029;-74
2022/12/09 04:12:45;;;;;;;71.63;16.83;;;;;;;0.01;100.00;100581.69;5050308;28;20105;-73
2022/12/09 04:15:11;;;;;;;80.57;17.00;;;;;;;-0.01;100.00;100577.31;5047225;28;20049;-73
2022/12/09 04:17:36;;;;;;;77.15;17.85;;;;;;;-0.03;100.00;100573.78;5059245;28;20031;-73
2022/12/09 04:20:02;;;;;;;81.60;19.15;;;;;;;-0.04;100.00;100577.16;5034765;28;20036;-73
2022/12/09 04:22:28;;;;;;;66.20;18.35;;;;;;;-0.07;100.00;100582.16;5051414;28;20040;-73
2022/12/09 04:24:54;;;;;;;70.85;17.70;;;;;;;-0.09;100.00;100581.19;5047609;28;20028;-73
2022/12/09 04:27:19;;;;;;;70.72;16.60;;;;;;;-0.11;100.00;100584.47;5047205;28;20033;-73
2022/12/09 04:29:44;;;;;;;63.85;16.92;;;;;;;-0.10;100.00;100581.09;5050684;28;20013;-72
2022/12/09 04:32:10;;;;;;;77.38;18.75;;;;;;;-0.13;100.00;100576.63;5039248;28;20565;-73
2022/12/09 04:34:35;;;;;;;83.43;18.45;;;;;;;-0.13;100.00;100580.94;5051292;28;20508;-73
2022/12/09 04:37:00;;;;;;;84.47;18.55;;;;;;;-0.15;100.00;100578.22;5049025;28;20017;-74
2022/12/09 04:39:26;;;;;;;70.78;17.00;;;;;;;-0.16;100.00;100581.66;5050570;28;20033;-73
2022/12/09 04:41:51;;;;;;;85.15;20.65;;;;;;;-0.18;100.00;100571.22;5050493;28;20108;-73
2022/12/09 04:44:16;;;;;;;83.07;17.83;;;;;;;-0.19;100.00;100568.53;5053799;28;20369;-73
2022/12/09 04:46:42;;;;;;;84.60;20.15;;;;;;;-0.16;100.00;100571.31;5042943;28;20529;-72
2022/12/09 04:49:07;;;;;;;89.45;20.45;;;;;;;-0.19;100.00;100574.63;5040549;28;20079;-72
2022/12/09 04:51:32;;;;;;;83.22;18.00;;;;;;;-0.17;100.00;100577.28;5042553;28;20029;-73
2022/12/09 04:53:58;;;;;;;81.32;20.08;;;;;;;-0.16;100.00;100571.31;5051819;28;20102;-73
2022/12/09 04:56:23;;;;;;;79.53;20.25;;;;;;;-0.14;100.00;100574.84;5061641;28;20074;-73
2022/12/09 04:58:49;;;;;;;92.30;19.73;;;;;;;-0.15;100.00;100578.22;5051996;28;20081;-73
2022/12/09 05:01:18;;;;;;;95.82;19.58;;;;;;;-0.17;100.00;100572.97;5048726;28;20033;-73
2022/12/09 05:03:46;;;;;;;88.88;21.63;;;;;;;-0.15;100.00;100567.88;5049963;28;20118;-73
2022/12/09 05:06:12;;;;;;;76.72;17.95;;;;;;;-0.16;100.00;100579.06;5048591;28;20378;-73
2022/12/09 05:08:39;;;;;;;97.82;19.92;;;;;;;-0.16;100.00;100573.91;5041855;28;20055;-73
2022/12/09 05:11:05;;;;;;;100.57;19.88;;;;;;;-0.17;100.00;100562.63;5042105;28;20056;-73
2022/12/09 05:13:31;;;;;;;81.07;20.58;;;;;;;-0.17;100.00;100566.94;5038368;28;20029;-71
2022/12/09 05:16:01;;;;;;;93.07;21.17;;;;;;;-0.14;100.00;100572.25;5043963;28;20103;-73
2022/12/09 05:18:27;;;;;;;88.13;20.85;;;;;;;-0.18;100.00;100571.22;5044090;28;20087;-72
2022/12/09 05:20:52;;;;;;;80.78;21.10;;;;;;;-0.21;100.00;100565.88;5043545;28;20025;-73
2022/12/09 05:23:18;;;;;;;70.45;19.75;;;;;;;-0.23;100.00;100567.50;5054434;28;20451;-73
2022/12/09 05:25:43;;;;;;;86.90;21.58;;;;;;;-0.31;100.00;100567.84;5049690;28;20410;-73
2022/12/09 05:28:08;;;;;;;73.55;19.23;;;;;;;-0.33;100.00;100567.78;5043936;28;20036;-72
2022/12/09 05:30:35;;;;;;;59.25;17.15;;;;;;;-0.31;100.00;100562.69;5049883;28;20490;-73
2022/12/09 05:33:01;;;;;;;65.10;19.15;;;;;;;-0.35;100.00;100557.34;5051492;28;20033;-73
2022/12/09 05:35:26;;;;;;;78.93;20.55;;;;;;;-0.37;100.00;100561.56;5052148;28;20435;-73
2022/12/09 05:37:51;;;;;;;65.68;18.60;;;;;;;-0.36;100.00;100560.72;5042435;28;20051;-73
2022/12/09 05:40:17;;;;;;;72.00;19.80;;;;;;;-0.35;100.00;100557.34;5061613;28;20504;-72
2022/12/09 05:42:42;;;;;;;67.88;19.65;;;;;;;-0.36;100.00;100563.31;5049863;28;20062;-73
2022/12/09 05:45:08;;;;;;;80.32;20.27;;;;;;;-0.35;100.00;100556.47;5036280;28;20030;-73
2022/12/09 05:47:33;;;;;;;62.17;17.15;;;;;;;-0.38;100.00;100561.44;5042553;28;20086;-73
2022/12/09 05:49:58;;;;;;;61.97;18.15;;;;;;;-0.39;100.00;100557.09;5052868;28;20468;-72
2022/12/09 05:52:23;;;;;;;65.88;19.55;;;;;;;-0.40;100.00;100553.59;5052710;28;20029;-72
2022/12/09 05:54:49;;;;;;;73.28;19.80;;;;;;;-0.38;100.00;100552.00;5050596;28;20053;-73
2022/12/09 05:57:14;;;;;;;56.05;16.80;;;;;;;-0.37;100.00;100558.97;5040071;28;20416;-73
2022/12/09 05:59:39;;;;;;;59.28;16.75;;;;;;;-0.36;100.00;100555.56;5062535;28;20056;-71
2022/12/09 06:02:05;;;;;;;69.72;18.45;;;;;;;-0.35;100.00;100557.34;5047935;28;20055;-72
2022/12/09 06:04:30;;;;;;;67.95;16.25;;;;;;;-0.40;100.00;100560.50;5056499;28;20543;-73
2022/12/09 06:06:56;;;;;;;60.42;18.30;;;;;;;-0.47;100.00;100556.66;5043529;28;20021;-72
2022/12/09 06:09:21;;;;;;;55.17;15.80;;;;;;;-0.44;100.00;100559.41;5049744;28;20029;-72
2022/12/09 06:11:46;;;;;;;74.45;19.60;;;;;;;-0.44;100.00;100561.13;5047947;28;20477;-72
2022/12/09 06:14:12;;;;;;;62.63;18.48;;;;;;;-0.43;100.00;100558.63;5044175;28;20026;-73
2022/12/09 06:16:37;;;;;;;68.07;18.95;;;;;;;-0.46;100.00;100558.44;5034764;28;20481;-73
2022/12/09 06:19:03;;;;;;;56.45;17.58;;;;;;;-0.47;100.00;100560.97;5044397;28;20037;-73
2022/12/09 06:21:29;;;;;;;56.50;17.77;;;;;;;-0.47;100.00;100556.66;5045365;28;20319;-72
2022/12/09 06:23:54;;;;;;;54.17;17.10;;;;;;;-0.49;100.00;100555.66;5049307;28;20029;-73
2022/12/09 06:26:24;;;;;;;66.93;19.00;;;;;;;-0.53;100.00;100551.13;5053049;28;20111;-73
2022/12/09 06:28:50;;;;;;;59.75;17.52;;;;;;;-0.58;100.00;100548.31;5050249;28;20025;-72
2022/12/09 06:31:16;;;;;;;56.05;17.92;;;;;;;-0.61;100.00;100549.81;5043153;28;20112;-72
2022/12/09 06:33:41;;;;;;;61.75;17.63;;;;;;;-0.60;100.00;100551.59;5037034;28;20101;-74
2022/12/09 06:36:07;;;;;;;62.00;17.85;;;;;;;-0.63;100.00;100554.91;5046192;28;20033;-77
2022/12/09 06:38:32;;;;;;;56.13;17.10;;;;;;;-0.67;100.00;100558.13;5053130;28;20078;-74
2022/12/09 06:40:58;;;;;;;58.13;17.27;;;;;;;-0.73;100.00;100558.66;5061658;28;20024;-74
2022/12/09 06:43:23;;;;;;;65.18;18.05;;;;;;;-0.73;100.00;100557.78;5049162;28;20029;-76
2022/12/09 06:45:48;;;;;;;54.60;16.52;;;;;;;-0.79;100.00;100553.13;5049262;28;20170;-73
2022/12/09 06:48:14;;;;;;;66.40;18.67;;;;;;;-0.76;100.00;100558.50;5047480;28;20574;-72
2022/12/09 06:50:40;;;;;;;58.13;17.60;;;;;;;-0.74;100.00;100556.00;5050734;28;20017;-73
2022/12/09 06:53:05;;;;;;;66.38;20.27;;;;;;;-0.72;100.00;100557.88;5048008;28;20403;-73
2022/12/09 06:55:30;;;;;;;65.13;17.83;;;;;;;-0.69;100.00;100558.03;5053671;28;20367;-73
2022/12/09 06:57:57;;;;;;;72.47;18.45;;;;;;;-0.69;100.00;100560.63;5052794;28;20040;-79
2022/12/09 07:00:22;;;;;;;66.65;19.08;;;;;;;-0.74;100.00;100559.47;5049829;28;20033;-73
2022/12/09 07:02:47;;;;;;;72.63;18.83;;;;;;;-0.70;100.00;100547.63;5050777;28;20028;-73
2022/12/09 07:05:13;;;;;;;74.50;19.92;;;;;;;-0.71;100.00;100551.88;5048139;28;20788;-72
2022/12/09 07:07:38;;;;;;;75.95;20.55;;;;;;;-0.73;100.00;100553.50;5048494;28;20384;-73
2022/12/09 07:10:07;;;;;;;78.60;19.90;;;;;;;-0.73;100.00;100556.06;5054766;28;20033;-72
2022/12/09 07:12:32;;;;;;;86.03;22.27;;;;;;;-0.73;100.00;100555.19;5051913;28;20501;-72
2022/12/09 07:14:58;;;;;;;80.88;19.60;;;;;;;-0.76;100.00;100557.59;5051617;28;20023;-72
2022/12/09 07:17:23;;;;;;;73.03;20.92;;;;;;;-0.80;100.00;100555.63;5052404;28;20396;-71
2022/12/09 07:19:49;;;;;;;77.38;21.05;;;;;;;-0.84;100.00;100554.59;5038105;28;20021;-72
2022/12/09 07:22:14;;;;;;;56.55;17.15;;;;;;;-0.86;100.00;100557.06;5048771;28;20021;-72
2022/12/09 07:24:40;;;;;;;65.47;18.40;;;;;;;-0.87;100.00;100554.38;5051092;28;20095;-72
2022/12/09 07:27:06;;;;;;;70.10;19.58;;;;;;;-0.90;100.00;100556.78;5052097;28;20373;-71
2022/12/09 07:29:34;;;;;;;79.93;21.33;;;;;;;-0.90;100.00;100556.78;5049108;28;20026;-72
2022/12/09 07:31:59;;;;;;;67.95;19.42;;;;;;;-0.88;100.00;100560.38;5051595;28;20032;-71
2022/12/09 07:34:24;;;;;;;75.53;20.73;;;;;;;-0.93;100.00;100564.38;5058793;28;20388;-72
2022/12/09 07:36:50;;;;;;;75.53;21.25;;;;;;;-0.95;100.00;100563.38;5053564;28;20033;-73
2022/12/09 07:39:16;;;;;;;68.00;20.30;;;;;;;-0.95;100.00;100560.81;5052643;28;20040;-73
2022/12/09 07:41:42;;;;;;;92.75;23.30;;;;;;;-0.95;100.00;100563.38;5054439;28;20520;-72
2022/12/09 07:44:09;;;;;;;147.20;23.27;;;;;;;-0.96;100.00;100559.91;5046792;28;20110;-75
2022/12/09 07:46:35;;;;;;;87.45;22.15;;;;;;;-0.95;100.00;100565.97;5053085;28;20032;-76
2022/12/09 07:49:02;;;;;;;120.68;23.45;;;;;;;-0.94;100.00;100568.63;5054323;28;20032;-75
2022/12/09 07:51:28;;;;;;;160.27;25.60;;;;;;;-1.00;100.00;100563.13;5043293;28;20033;-75
2022/12/09 07:53:54;;;;;;;172.68;23.70;;;;;;;-0.98;100.00;100566.66;5051726;28;20426;-79
2022/12/09 07:56:21;;;;;;;93.05;22.27;;;;;;;-0.98;100.00;100570.97;5047381;28;20115;-78
2022/12/09 07:58:47;;;;;;;147.73;25.25;;;;;;;-0.98;100.00;100573.53;5052662;28;20480;-76
2022/12/09 08:01:17;;;;;;;93.18;21.70;;;;;;;-0.96;100.00;100578.00;5054023;28;20016;-76
2022/12/09 08:03:43;;;;;;;126.50;21.77;;;;;;;-0.91;100.00;100573.09;5048912;28;20047;-77
2022/12/09 08:06:14;;;;;;;224.43;24.65;;;;;;;-0.89;100.00;100574.09;5051188;28;20024;-75
2022/12/09 08:08:40;;;;;;;138.45;22.67;;;;;;;-0.86;100.00;100576.84;5053794;28;20029;-76
2022/12/09 08:11:12;;;;;;;150.88;21.88;;;;;;;-0.93;100.00;100574.72;5053397;28;20365;-77
2022/12/09 08:13:37;;;;;;;119.03;19.75;;;;;;;-0.99;100.00;100575.25;5053485;28;20043;-76
2022/12/09 08:16:07;;;;;;;100.95;20.25;;;;;;;-0.99;100.00;100579.50;5068752;28;20028;-77
2022/12/09 08:18:34;;;;;;;99.97;20.27;;;;;;;-1.04;100.00;100585.28;5052941;28;20033;-76
2022/12/09 08:21:04;;;;;;;186.23;21.92;;;;;;;-0.99;100.00;100574.34;5054224;28;20033;-77
2022/12/09 08:23:29;;;;;;;291.70;24.95;;;;;;;-0.96;100.00;100579.66;5047308;28;20035;-76
2022/12/09 08:25:55;;;;;;;117.20;21.13;;;;;;;-0.97;100.00;100585.66;5044066;28;20021;-77
2022/12/09 08:28:22;;;;;;;85.88;20.20;;;;;;;-0.94;100.00;100578.97;5045735;28;20501;-75
2022/12/09 08:30:48;;;;;;;102.60;20.45;;;;;;;-0.93;100.00;100582.47;5055608;28;20025;-75
2022/12/09 08:33:14;;;;;;;172.70;23.42;;;;;;;-0.87;100.00;100573.38;5042039;28;20028;-74
2022/12/09 08:35:39;;;;;;;125.05;22.77;;;;;;;-0.78;100.00;100574.72;5042683;28;20400;-74
2022/12/09 08:38:05;;;;;;;250.05;26.98;;;;;;;-0.72;100.00;100581.13;5051660;28;20020;-73
2022/12/09 08:40:30;;;;;;;119.38;22.38;;;;;;;-0.71;100.00;100579.41;5051119;28;20068;-73
2022/12/09 08:42:56;;;;;;;220.68;27.08;;;;;;;-0.62;100.00;100582.53;5056297;28;20108;-73
2022/12/09 08:45:21;;;;;;;193.75;25.20;;;;;;;-0.62;100.00;100571.31;5070264;28;20030;-74
2022/12/09 08:47:46;;;;;;;113.53;24.77;;;;;;;-0.55;100.00;100581.19;5071601;28;20025;-74
2022/12/09 08:50:12;;;;;;;103.78;23.73;;;;;;;-0.54;100.00;100578.69;5038655;28;20025;-74
2022/12/09 08:52:37;;;;;;;106.15;24.50;;;;;;;-0.52;100.00;100590.03;5044884;28;20077;-75
2022/12/09 08:55:03;;;;;;;120.07;26.73;;;;;;;-0.50;100.00;100582.34;5067860;28;20028;-75
2022/12/09 08:57:28;;;;;;;118.60;23.77;;;;;;;-0.46;100.00;100584.31;5071594;28;20036;-73
2022/12/09 08:59:53;;;;;;;175.20;23.90;;;;;;;-0.40;100.00;100584.63;5072288;28;20422;-74
2022/12/09 09:02:19;;;;;;;97.90;25.30;;;;;;;-0.34;100.00;100586.66;5037454;28;20036;-74
2022/12/09 09:04:44;;;;;;;127.40;26.20;;;;;;;-0.37;100.00;100579.66;5041915;28;20021;-74
2022/12/09 09:07:11;;;;;;;115.05;26.58;;;;;;;-0.38;100.00;100575.28;5050652;28;20028;-75
2022/12/09 09:09:36;;;;;;;122.78;27.17;;;;;;;-0.36;100.00;100568.50;5044417;28;20026;-75
2022/12/09 09:12:02;;;;;;;119.70;26.83;;;;;;;-0.34;100.00;100568.56;5032006;28;20033;-74
2022/12/09 09:14:28;;;;;;;337.95;31.30;;;;;;;-0.32;100.00;100577.31;5053422;28;20350;-73
2022/12/09 09:16:53;;;;;;;250.50;30.15;;;;;;;-0.31;100.00;100575.59;5042420;28;20037;-75
2022/12/09 09:19:21;;;;;;;195.32;29.58;;;;;;;-0.32;100.00;100574.72;5040529;28;20025;-75
2022/12/09 09:21:46;;;;;;;104.85;26.58;;;;;;;-0.25;100.00;100579.44;5056501;28;20037;-74
2022/12/09 09:24:15;;;;;;;304.40;30.40;;;;;;;-0.24;100.00;100575.16;5058074;28;20039;-74
2022/12/09 09:26:42;;;;;;;172.32;28.80;;;;;;;-0.19;100.00;100579.78;5071676;28;20104;-74
2022/12/09 09:29:10;;;;;;;226.82;29.67;;;;;;;-0.13;100.00;100574.06;5070810;28;20376;-74
2022/12/09 09:31:35;;;;;;;133.68;28.45;;;;;;;-0.07;100.00;100577.00;5057420;28;20047;-73
2022/12/09 09:34:00;;;;;;;164.45;27.33;;;;;;;0.01;100.00;100584.28;5050452;28;20028;-73
2022/12/09 09:36:26;;;;;;;110.47;26.42;;;;;;;0.09;100.00;100585.56;5050014;28;20028;-73
2022/12/09 09:38:53;;;;;;;127.13;27.00;;;;;;;0.14;100.00;100584.13;5055285;28;20027;-74
2022/12/09 09:41:26;;;;;;;134.95;28.08;;;;;;;0.23;100.00;100588.91;5059604;28;20468;-74
2022/12/09 09:43:52;;;;;;;108.07;26.58;;;;;;;0.35;100.00;100593.84;5053609;28;20032;-74
2022/12/09 09:46:29;;;;;;;97.15;24.83;;;;;;;0.48;100.00;100596.28;5058121;28;20051;-74
2022/12/09 09:48:56;;;;;;;100.82;27.65;;;;;;;0.51;100.00;100596.44;5048288;28;20029;-75
2022/12/09 09:51:21;;;;;;;90.25;26.25;;;;;;;0.60;100.00;100607.31;5046472;28;20400;-75
2022/12/09 09:53:51;;;;;;;102.57;27.45;;;;;;;0.72;100.00;100606.16;5059160;28;20024;-76
2022/12/09 09:56:35;;;;;;;97.15;25.90;;;;;;;0.86;100.00;100609.47;5059092;28;20562;-75
2022/12/09 09:59:25;;;;;;;92.40;27.48;;;;;;;0.89;100.00;100610.50;5048557;28;20049;-75
2022/12/09 10:01:59;;;;;;;79.93;25.33;;;;;;;1.04;100.00;100619.91;5038960;28;20029;-75
2022/12/09 10:04:38;;;;;;;88.28;27.67;;;;;;;1.06;100.00;100620.84;5038664;28;20021;-75
2022/12/09 10:07:20;;;;;;;95.22;27.70;;;;;;;1.15;100.00;100608.38;5056066;28;20033;-72
2022/12/09 10:09:59;;;;;;;85.00;26.30;;;;;;;1.27;100.00;100619.34;5038179;28;20512;-73
2022/12/09 10:12:38;;;;;;;88.95;26.10;;;;;;;1.15;100.00;100613.53;5058792;28;20484;-75
2022/12/09 10:15:14;;;;;;;74.40;24.08;;;;;;;1.17;100.00;100617.13;5055833;28;20213;-73
2022/12/09 10:17:52;;;;;;;84.97;26.67;;;;;;;1.46;100.00;100612.50;5037613;28;20030;-74
2022/12/09 10:20:29;;;;;;;81.20;25.13;;;;;;;1.97;100.00;100615.84;5048324;28;20029;-75
2022/12/09 10:22:58;;;;;;;78.40;26.17;;;;;;;2.12;100.00;100607.00;5051130;28;20029;-74
2022/12/09 10:25:47;;;;;;;63.53;25.35;;;;;;;2.01;100.00;100616.88;5040067;28;20068;-75
2022/12/09 10:28:20;;;;;;;64.65;24.60;;;;;;;1.94;100.00;100620.00;5046175;28;20191;-74
2022/12/09 10:30:47;;;;;;;52.75;24.90;;;;;;;1.92;100.00;100616.44;5065323;28;20487;-73
2022/12/09 10:33:14;;;;;;;57.22;24.00;;;;;;;1.95;100.00;100616.59;5052398;28;20048;-74
2022/12/09 10:35:40;;;;;;;61.70;23.70;;;;;;;1.80;100.00;100606.38;5055473;28;20020;-73
2022/12/09 10:38:15;;;;;;;58.78;22.90;;;;;;;1.81;100.00;100605.56;5057657;28;20043;-72
2022/12/09 10:40:43;;;;;;;57.15;24.88;;;;;;;1.66;100.00;100603.09;5055923;28;20389;-73
2022/12/09 10:43:35;;;;;;;54.63;23.73;;;;;;;1.62;100.00;100596.00;5049807;28;20025;-73
2022/12/09 10:46:22;;;;;;;59.40;24.98;;;;;;;1.78;100.00;100597.63;5052327;28;20071;-72
2022/12/09 10:48:47;;;;;;;56.40;23.30;;;;;;;1.89;100.00;100588.66;5057699;28;20078;-72
2022/12/09 10:51:17;;;;;;;58.72;23.83;;;;;;;2.11;100.00;100592.25;5052853;28;20431;-73
2022/12/09 10:53:47;;;;;;;56.03;24.77;;;;;;;2.42;100.00;100588.47;5052973;28;20067;-72
2022/12/09 10:56:19;;;;;;;57.33;24.27;;;;;;;2.40;100.00;100580.63;5043807;28;20029;-70
2022/12/09 10:58:44;;;;;;;56.17;25.38;;;;;;;2.81;100.00;100578.97;5049697;28;20056;-72
2022/12/09 11:01:13;;;;;;;46.88;22.27;;;;;;;3.32;100.00;100575.91;5049208;28;20108;-77
2022/12/09 11:03:52;;;;;;;58.35;24.73;;;;;;;3.74;100.00;100585.38;5048284;28;20039;-73
2022/12/09 11:06:27;;;;;;;54.97;24.02;;;;;;;4.16;100.00;100587.00;5039824;28;20045;-73
2022/12/09 11:08:55;;;;;;;46.92;22.20;;;;;;;4.59;100.00;100588.63;5035971;28;20056;-73